createdAt,value
2022-12-26T00:01:11.679Z,525.38
2022-12-26T00:03:40.108Z,756.90
2022-12-26T00:06:13.857Z,425.13
2022-12-26T00:08:42.602Z,544.97
2022-12-26T00:11:10.691Z,675.33
2022-12-26T00:13:41.595Z,705.80
2022-12-26T00:16:19.096Z,593.80
2022-12-26T00:18:47.470Z,600.42
2022-12-26T00:21:16.503Z,782.65
2022-12-26T00:23:44.724Z,391.02
2022-12-26T00:26:22.360Z,506.58
2022-12-26T00:28:50.641Z,668.47
2022-12-26T00:31:21.622Z,705.25
2022-12-26T00:33:49.913Z,582.05
2022-12-26T00:36:22.849Z,600.38
2022-12-26T00:38:51.773Z,576.35
2022-12-26T00:41:20.641Z,738.10
2022-12-26T00:43:49.401Z,695.50
2022-12-26T00:46:17.763Z,652.25
2022-12-26T00:48:45.752Z,515.60
2022-12-26T00:51:14.814Z,508.23
2022-12-26T00:53:42.746Z,613.38
2022-12-26T00:56:10.083Z,522.15
2022-12-26T00:58:37.973Z,536.88
2022-12-26T01:01:12.973Z,346.38
2022-12-26T01:03:43.106Z,588.83
2022-12-26T01:06:10.516Z,540.97
2022-12-26T01:08:38.345Z,544.00
2022-12-26T01:11:07.860Z,360.08
2022-12-26T01:13:36.204Z,429.33
2022-12-26T01:16:03.755Z,723.22
2022-12-26T01:18:32.202Z,423.88
2022-12-26T01:21:02.050Z,644.78
2022-12-26T01:23:29.741Z,484.23
2022-12-26T01:26:19.171Z,622.65
2022-12-26T01:28:44.658Z,355.80
2022-12-26T01:31:11.980Z,540.00
2022-12-26T01:33:39.514Z,779.92
2022-12-26T01:36:08.441Z,590.95
2022-12-26T01:38:36.094Z,479.75
2022-12-26T01:41:19.938Z,380.25
2022-12-26T01:44:00.900Z,488.30
2022-12-26T01:46:44.795Z,442.13
2022-12-26T01:49:31.202Z,485.15
2022-12-26T01:52:09.746Z,419.95
2022-12-26T01:54:42.927Z,419.80
2022-12-26T01:57:17.237Z,385.75
2022-12-26T01:59:47.455Z,349.83
2022-12-26T02:02:17.106Z,424.20
2022-12-26T02:05:07.948Z,383.55
2022-12-26T02:07:40.446Z,333.08
2022-12-26T02:10:16.939Z,380.50
2022-12-26T02:12:45.386Z,353.40
2022-12-26T02:15:16.849Z,399.45
2022-12-26T02:17:44.314Z,347.08
2022-12-26T02:20:28.684Z,351.60
2022-12-26T02:23:04.851Z,340.40
2022-12-26T02:25:59.833Z,347.17
2022-12-26T02:28:55.017Z,295.05
2022-12-26T02:31:26.420Z,345.00
2022-12-26T02:34:19.715Z,457.65
2022-12-26T02:37:15.687Z,328.20
2022-12-26T02:39:53.773Z,313.33
2022-12-26T02:42:33.253Z,296.52
2022-12-26T02:45:39.683Z,296.77
2022-12-26T02:48:13.742Z,342.60
2022-12-26T02:51:07.162Z,277.30
2022-12-26T02:57:00.709Z,275.48
2022-12-26T03:00:02.618Z,259.63
2022-12-26T03:03:10.608Z,352.17
2022-12-26T03:06:26.259Z,374.65
2022-12-26T03:09:18.547Z,498.88
2022-12-26T03:12:09.614Z,496.05
2022-12-26T03:14:45.718Z,590.90
2022-12-26T03:17:26.744Z,412.10
2022-12-26T03:20:00.707Z,333.52
2022-12-26T03:22:48.553Z,288.63
2022-12-26T03:25:44.301Z,391.33
2022-12-26T03:28:13.935Z,288.08
2022-12-26T03:30:50.935Z,274.00
2022-12-26T03:33:50.910Z,298.42
2022-12-26T03:37:02.011Z,341.75
2022-12-26T03:40:14.797Z,284.85
2022-12-26T03:43:19.544Z,278.73
2022-12-26T03:46:24.078Z,318.58
2022-12-26T03:49:20.933Z,293.30
2022-12-26T03:52:24.595Z,277.33
2022-12-26T03:55:24.822Z,244.68
2022-12-26T03:58:24.442Z,253.52
2022-12-26T04:01:13.983Z,227.85
2022-12-26T04:04:03.597Z,253.27
2022-12-26T04:06:58.488Z,228.43
2022-12-26T04:09:54.768Z,242.45
2022-12-26T04:12:45.205Z,220.52
2022-12-26T04:15:46.796Z,221.60
2022-12-26T04:18:44.146Z,198.45
2022-12-26T04:21:56.036Z,225.30
2022-12-26T04:24:47.820Z,210.70
2022-12-26T04:27:38.108Z,342.38
2022-12-26T04:30:24.964Z,236.43
2022-12-26T04:33:16.622Z,216.65
2022-12-26T04:36:13.601Z,188.03
2022-12-26T04:39:03.743Z,228.35
2022-12-26T04:41:52.893Z,213.10
2022-12-26T04:44:25.481Z,217.73
2022-12-26T04:46:54.534Z,208.05
2022-12-26T04:49:41.741Z,184.27
2022-12-26T04:52:15.041Z,171.43
2022-12-26T04:54:42.676Z,188.80
2022-12-26T04:57:11.731Z,201.35
2022-12-26T04:59:39.343Z,185.77
2022-12-26T05:02:25.432Z,181.25
2022-12-26T05:05:11.707Z,208.32
2022-12-26T05:07:57.845Z,150.60
2022-12-26T05:10:27.986Z,188.23
2022-12-26T05:12:56.086Z,255.10
2022-12-26T05:15:24.041Z,228.35
2022-12-26T05:18:10.100Z,220.32
2022-12-26T05:20:46.316Z,243.75
2022-12-26T05:23:41.768Z,187.15
2022-12-26T05:26:38.680Z,196.00
2022-12-26T05:29:06.798Z,198.90
2022-12-26T05:31:36.384Z,185.05
2022-12-26T05:34:08.704Z,178.23
2022-12-26T05:39:10.963Z,160.88
2022-12-26T05:41:38.898Z,166.88
2022-12-26T05:44:07.155Z,141.18
2022-12-26T05:46:35.527Z,170.35
2022-12-26T05:49:03.853Z,160.00
2022-12-26T05:51:31.869Z,158.65
2022-12-26T05:54:00.093Z,164.77
2022-12-26T05:56:27.884Z,241.05
2022-12-26T05:59:00.504Z,168.60
2022-12-26T06:01:29.401Z,190.50
2022-12-26T06:03:59.304Z,142.98
2022-12-26T06:06:28.060Z,222.18
2022-12-26T06:08:57.227Z,160.90
2022-12-26T06:11:26.703Z,160.07
2022-12-26T06:13:55.351Z,227.30
2022-12-26T06:16:23.411Z,138.10
2022-12-26T06:18:50.804Z,142.35
2022-12-26T06:21:20.278Z,190.38
2022-12-26T06:23:49.317Z,217.07
2022-12-26T06:26:17.472Z,215.10
2022-12-26T06:28:45.328Z,276.05
2022-12-26T06:31:18.207Z,184.82
2022-12-26T06:33:46.012Z,179.32
2022-12-26T06:36:16.952Z,147.68
2022-12-26T06:38:44.639Z,147.43
2022-12-26T06:41:15.482Z,130.23
2022-12-26T06:43:43.356Z,127.97
2022-12-26T06:46:14.644Z,337.17
2022-12-26T06:48:42.136Z,243.33
2022-12-26T06:51:25.548Z,137.95
2022-12-26T06:53:53.576Z,266.23
2022-12-26T06:56:24.058Z,385.50
2022-12-26T06:58:55.571Z,215.10
2022-12-26T07:01:23.757Z,142.43
2022-12-26T07:03:55.683Z,143.23
2022-12-26T07:08:51.811Z,177.70
2022-12-26T07:11:26.163Z,109.82
2022-12-26T07:13:54.705Z,94.45
2022-12-26T07:16:22.965Z,73.05
2022-12-26T07:18:53.053Z,78.03
2022-12-26T07:21:21.484Z,176.13
2022-12-26T07:23:48.917Z,132.70
2022-12-26T07:26:16.475Z,84.32
2022-12-26T07:28:43.914Z,89.95
2022-12-26T07:31:19.793Z,137.05
2022-12-26T07:33:49.317Z,96.40
2022-12-26T07:36:17.535Z,239.77
2022-12-26T07:38:45.468Z,96.38
2022-12-26T07:41:32.541Z,281.35
2022-12-26T07:44:01.006Z,157.55
2022-12-26T07:46:28.756Z,89.93
2022-12-26T07:48:56.060Z,80.63
2022-12-26T07:51:23.984Z,117.13
2022-12-26T07:53:51.497Z,125.10
2022-12-26T07:56:19.162Z,125.50
2022-12-26T07:58:52.665Z,84.78
2022-12-26T08:01:20.473Z,68.70
2022-12-26T08:03:50.211Z,273.60
2022-12-26T08:06:19.142Z,155.30
2022-12-26T08:08:51.200Z,59.03
2022-12-26T08:11:22.703Z,114.53
2022-12-26T08:13:51.233Z,145.32
2022-12-26T08:16:20.368Z,77.55
2022-12-26T08:18:47.739Z,67.03
2022-12-26T08:21:15.601Z,115.97
2022-12-26T08:23:43.059Z,66.88
2022-12-26T08:26:13.113Z,82.95
2022-12-26T08:28:42.708Z,109.10
2022-12-26T08:31:12.655Z,176.85
2022-12-26T08:33:40.154Z,166.43
2022-12-26T08:36:10.144Z,119.68
2022-12-26T08:38:38.015Z,451.80
2022-12-26T08:41:05.880Z,115.28
2022-12-26T08:46:22.122Z,91.88
2022-12-26T08:48:50.281Z,82.18
2022-12-26T08:51:21.027Z,78.22
2022-12-26T08:53:52.065Z,93.70
2022-12-26T08:56:23.210Z,57.17
2022-12-26T08:58:50.812Z,132.45
2022-12-26T09:01:21.729Z,186.05
2022-12-26T09:03:53.747Z,137.38
2022-12-26T09:06:21.776Z,232.38
2022-12-26T09:08:49.075Z,433.45
2022-12-26T09:11:20.809Z,102.65
2022-12-26T09:13:48.354Z,101.13
2022-12-26T09:16:19.433Z,179.68
2022-12-26T09:18:47.779Z,136.07
2022-12-26T09:21:16.432Z,113.53
2022-12-26T09:23:43.767Z,95.75
2022-12-26T09:26:18.115Z,103.03
2022-12-26T09:28:47.206Z,105.57
2022-12-26T09:31:17.935Z,177.18
2022-12-26T09:33:47.446Z,183.88
2022-12-26T09:36:21.018Z,115.95
2022-12-26T09:38:49.563Z,126.93
2022-12-26T09:41:29.732Z,129.63
2022-12-26T09:44:09.906Z,103.80
2022-12-26T09:46:51.501Z,113.18
2022-12-26T09:49:22.731Z,104.47
2022-12-26T09:51:55.401Z,111.95
2022-12-26T09:54:40.352Z,117.13
2022-12-26T09:57:16.104Z,94.85
2022-12-26T09:59:52.514Z,100.63
2022-12-26T10:02:22.937Z,110.35
2022-12-26T10:04:51.700Z,101.43
2022-12-26T10:07:38.152Z,104.32
2022-12-26T10:10:12.391Z,105.63
2022-12-26T10:12:49.136Z,89.22
2022-12-26T10:15:38.488Z,99.72
2022-12-26T10:18:11.569Z,92.90
2022-12-26T10:21:00.898Z,136.68
2022-12-26T10:23:30.676Z,99.10
2022-12-26T10:26:09.821Z,84.30
2022-12-26T10:28:37.797Z,100.85
2022-12-26T10:31:14.650Z,102.78
2022-12-26T10:33:59.153Z,108.28
2022-12-26T10:36:33.328Z,131.07
2022-12-26T10:39:04.839Z,121.10
2022-12-26T10:41:47.162Z,116.72
2022-12-26T10:44:15.948Z,109.35
2022-12-26T10:47:01.999Z,108.85
2022-12-26T10:49:30.015Z,103.05
2022-12-26T10:52:00.951Z,88.88
2022-12-26T10:54:30.239Z,107.28
2022-12-26T10:56:59.245Z,95.78
2022-12-26T10:59:39.341Z,107.05
2022-12-26T11:02:36.202Z,90.57
2022-12-26T11:05:21.941Z,111.97
2022-12-26T11:08:24.314Z,104.00
2022-12-26T11:11:13.469Z,112.68
2022-12-26T11:13:47.532Z,154.85
2022-12-26T11:16:25.714Z,176.57
2022-12-26T11:18:53.589Z,111.78
2022-12-26T11:21:27.018Z,87.63
2022-12-26T11:24:19.933Z,116.82
2022-12-26T11:26:48.225Z,102.38
2022-12-26T11:29:24.453Z,100.95
2022-12-26T11:32:04.257Z,103.05
2022-12-26T11:34:38.682Z,114.78
2022-12-26T11:37:07.685Z,111.72
2022-12-26T11:39:38.043Z,112.40
2022-12-26T11:42:18.561Z,85.70
2022-12-26T11:44:52.548Z,110.72
2022-12-26T11:47:24.207Z,94.57
2022-12-26T11:49:59.320Z,88.60
2022-12-26T11:52:39.024Z,95.38
2022-12-26T11:55:28.103Z,56.40
2022-12-26T11:58:02.334Z,42.38
2022-12-26T12:00:30.101Z,37.40
2022-12-26T12:02:57.751Z,24.83
2022-12-26T12:05:43.485Z,19.02
2022-12-26T12:08:32.551Z,18.77
2022-12-26T12:11:09.761Z,18.45
2022-12-26T12:14:02.344Z,13.45
2022-12-26T12:16:48.295Z,9.63
2022-12-26T12:19:27.995Z,9.95
2022-12-26T12:22:23.280Z,9.68
2022-12-26T12:25:25.445Z,8.25
2022-12-26T12:28:13.942Z,6.78
2022-12-26T12:31:24.765Z,7.45
2022-12-26T12:34:07.394Z,7.22
2022-12-26T12:36:48.175Z,7.55
2022-12-26T12:39:49.240Z,5.82
2022-12-26T12:42:30.036Z,5.57
2022-12-26T12:45:30.936Z,6.88
2022-12-26T12:48:01.430Z,5.40
2022-12-26T12:50:44.325Z,5.43
2022-12-26T12:53:20.868Z,7.30
2022-12-26T12:56:10.923Z,6.45
2022-12-26T12:58:54.589Z,5.05
2022-12-26T13:01:28.340Z,6.10
2022-12-26T13:04:04.224Z,6.75
2022-12-26T13:06:51.672Z,5.30
2022-12-26T13:09:23.824Z,5.55
2022-12-26T13:11:57.003Z,6.13
2022-12-26T13:14:33.710Z,4.93
2022-12-26T13:17:15.021Z,4.75
2022-12-26T13:20:02.581Z,4.65
2022-12-26T13:22:55.812Z,5.07
2022-12-26T13:25:28.704Z,5.40
2022-12-26T13:28:09.676Z,5.60
2022-12-26T13:30:38.977Z,4.20
2022-12-26T13:33:06.671Z,4.63
2022-12-26T13:35:50.662Z,4.70
2022-12-26T13:38:18.732Z,5.43
2022-12-26T13:41:22.950Z,5.18
2022-12-26T13:44:28.903Z,3.88
2022-12-26T13:46:59.289Z,3.70
2022-12-26T13:49:29.074Z,4.32
2022-12-26T13:52:22.827Z,5.13
2022-12-26T13:54:50.497Z,4.72
2022-12-26T13:57:40.241Z,4.15
2022-12-26T14:00:19.597Z,5.45
2022-12-26T14:03:19.635Z,4.03
2022-12-26T14:06:06.430Z,3.13
2022-12-26T14:09:01.676Z,3.85
2022-12-26T14:12:05.820Z,4.10
2022-12-26T14:14:57.204Z,3.90
2022-12-26T14:17:30.231Z,4.15
2022-12-26T14:20:13.050Z,5.57
2022-12-26T14:22:42.961Z,4.47
2022-12-26T14:25:29.586Z,4.90
2022-12-26T14:28:09.587Z,5.28
2022-12-26T14:31:04.397Z,4.63
2022-12-26T14:34:10.751Z,4.20
2022-12-26T14:36:58.604Z,5.57
2022-12-26T14:39:39.302Z,3.90
2022-12-26T14:42:25.464Z,3.45
2022-12-26T14:44:55.651Z,4.55
2022-12-26T14:47:43.736Z,4.07
2022-12-26T14:50:32.758Z,2.00
2022-12-26T14:53:28.326Z,2.20
2022-12-26T14:56:10.808Z,5.22
2022-12-26T14:58:41.854Z,2.97
2022-12-26T15:01:09.192Z,3.67
2022-12-26T15:03:44.730Z,3.92
2022-12-26T15:06:21.051Z,2.92
2022-12-26T15:09:10.041Z,2.10
2022-12-26T15:11:52.137Z,2.35
2022-12-26T15:14:56.328Z,2.10
2022-12-26T15:17:43.840Z,1.23
2022-12-26T15:20:32.732Z,2.97
2022-12-26T15:23:19.919Z,2.33
2022-12-26T15:26:11.901Z,2.13
2022-12-26T15:29:04.446Z,2.15
2022-12-26T15:31:32.145Z,2.20
2022-12-26T15:34:11.575Z,2.75
2022-12-26T15:37:06.549Z,3.17
2022-12-26T15:39:53.757Z,3.47
2022-12-26T15:42:38.030Z,6.10
2022-12-26T15:45:47.255Z,4.32
2022-12-26T15:48:48.918Z,3.85
2022-12-26T15:51:25.126Z,5.25
2022-12-26T15:54:31.526Z,3.95
2022-12-26T15:57:30.374Z,5.50
2022-12-26T16:00:10.795Z,6.30
2022-12-26T16:03:18.151Z,7.22
2022-12-26T16:06:07.508Z,6.50
2022-12-26T16:08:48.180Z,5.68
2022-12-26T16:11:23.472Z,7.03
2022-12-26T16:13:51.015Z,6.85
2022-12-26T16:16:45.007Z,7.47
2022-12-26T16:19:26.402Z,7.65
2022-12-26T16:22:21.486Z,5.18
2022-12-26T16:24:51.625Z,5.80
2022-12-26T16:27:22.457Z,5.93
2022-12-26T16:29:55.083Z,5.35
2022-12-26T16:32:31.579Z,4.40
2022-12-26T16:34:59.547Z,3.95
2022-12-26T16:37:28.805Z,5.45
2022-12-26T16:40:08.179Z,3.33
2022-12-26T16:42:35.823Z,3.45
2022-12-26T16:45:04.224Z,3.80
2022-12-26T16:47:33.314Z,4.90
2022-12-26T16:50:04.130Z,3.63
2022-12-26T16:52:40.603Z,3.40
2022-12-26T16:55:31.346Z,5.07
2022-12-26T16:58:04.210Z,4.72
2022-12-26T17:00:32.936Z,5.78
2022-12-26T17:03:01.709Z,4.82
2022-12-26T17:05:37.303Z,3.13
2022-12-26T17:08:05.663Z,4.78
2022-12-26T17:10:37.338Z,4.32
2022-12-26T17:15:55.886Z,4.93
2022-12-26T17:18:38.507Z,4.35
2022-12-26T17:21:19.332Z,3.20
2022-12-26T17:24:20.727Z,3.80
2022-12-26T17:27:08.117Z,5.88
2022-12-26T17:29:45.356Z,3.10
2022-12-26T17:32:26.942Z,4.28
2022-12-26T17:37:25.032Z,3.95
2022-12-26T17:40:06.662Z,3.78
2022-12-26T17:42:44.694Z,4.07
2022-12-26T17:45:18.102Z,6.22
2022-12-26T17:47:45.485Z,4.32
2022-12-26T17:50:13.897Z,5.30
2022-12-26T17:52:41.572Z,5.20
2022-12-26T17:55:17.281Z,5.03
2022-12-26T17:57:44.648Z,5.15
2022-12-26T18:00:18.214Z,3.97
2022-12-26T18:02:45.810Z,4.35
2022-12-26T18:05:13.640Z,3.70
2022-12-26T18:07:41.992Z,3.28
2022-12-26T18:10:26.884Z,3.42
2022-12-26T18:12:54.330Z,3.50
2022-12-26T18:15:23.035Z,4.72
2022-12-26T18:17:51.711Z,7.72
2022-12-26T18:20:25.500Z,5.20
2022-12-26T18:22:52.976Z,5.93
2022-12-26T18:25:23.499Z,7.53
2022-12-26T18:27:51.860Z,7.38
2022-12-26T18:30:25.139Z,7.97
2022-12-26T18:32:53.615Z,8.82
2022-12-26T18:35:21.683Z,8.43
2022-12-26T18:37:51.819Z,8.98
2022-12-26T18:40:45.156Z,7.90
2022-12-26T18:43:13.455Z,9.68
2022-12-26T18:45:42.246Z,8.63
2022-12-26T18:48:14.176Z,9.10
2022-12-26T18:50:42.342Z,9.38
2022-12-26T18:53:10.054Z,7.22
2022-12-26T18:55:37.999Z,7.97
2022-12-26T18:58:05.662Z,8.13
2022-12-26T19:00:33.653Z,6.82
2022-12-26T19:03:00.992Z,7.85
2022-12-26T19:05:31.331Z,8.52
2022-12-26T19:07:59.739Z,6.22
2022-12-26T19:10:30.750Z,5.60
2022-12-26T19:13:05.355Z,7.13
2022-12-26T19:15:35.458Z,6.65
2022-12-26T19:18:04.223Z,6.68
2022-12-26T19:20:32.366Z,7.13
2022-12-26T19:22:59.706Z,6.43
2022-12-26T19:25:27.750Z,9.75
2022-12-26T19:27:56.784Z,7.85
2022-12-26T19:30:24.689Z,6.38
2022-12-26T19:32:52.042Z,5.88
2022-12-26T19:35:20.137Z,6.55
2022-12-26T19:37:47.535Z,6.95
2022-12-26T19:40:19.730Z,8.05
2022-12-26T19:42:48.749Z,6.20
2022-12-26T19:45:16.995Z,5.43
2022-12-26T19:47:44.395Z,8.00
2022-12-26T19:50:12.736Z,8.30
2022-12-26T19:52:41.358Z,11.32
2022-12-26T19:55:11.755Z,8.13
2022-12-26T19:57:39.077Z,8.00
2022-12-26T20:00:07.664Z,7.75
2022-12-26T20:02:41.377Z,7.25
2022-12-26T20:05:10.285Z,7.57
2022-12-26T20:07:37.942Z,7.80
2022-12-26T20:10:06.317Z,8.10
2022-12-26T20:12:33.803Z,8.63
2022-12-26T20:15:01.390Z,10.75
2022-12-26T20:17:29.020Z,7.40
2022-12-26T20:19:56.615Z,7.93
2022-12-26T20:22:23.944Z,8.82
2022-12-26T20:24:51.556Z,7.53
2022-12-26T20:27:18.980Z,9.32
2022-12-26T20:29:47.070Z,7.43
2022-12-26T20:32:15.743Z,10.02
2022-12-26T20:34:43.274Z,12.70
2022-12-26T20:37:10.634Z,11.30
2022-12-26T20:39:38.214Z,13.93
2022-12-26T20:42:05.542Z,15.20
2022-12-26T20:44:33.456Z,10.85
2022-12-26T20:47:00.732Z,11.45
2022-12-26T20:49:29.196Z,14.52
2022-12-26T20:51:56.551Z,13.65
2022-12-26T20:54:24.903Z,13.82
2022-12-26T20:56:52.465Z,13.20
2022-12-26T20:59:20.063Z,12.20
2022-12-26T21:01:47.440Z,11.85
2022-12-26T21:04:21.186Z,9.75
2022-12-26T21:06:50.432Z,10.75
2022-12-26T21:09:18.382Z,14.38
2022-12-26T21:11:45.906Z,11.38
2022-12-26T21:14:17.223Z,12.70
2022-12-26T21:16:48.143Z,8.68
2022-12-26T21:19:17.197Z,10.15
2022-12-26T21:21:50.005Z,9.13
2022-12-26T21:24:22.908Z,7.85
2022-12-26T21:26:51.059Z,5.20
2022-12-26T21:29:23.275Z,5.65
2022-12-26T21:31:51.220Z,4.10
2022-12-26T21:34:20.904Z,5.90
2022-12-26T21:37:07.146Z,4.72
2022-12-26T21:39:36.489Z,4.75
2022-12-26T21:42:05.222Z,3.75
2022-12-26T21:44:32.968Z,4.50
2022-12-26T21:47:00.332Z,2.13
2022-12-26T21:49:28.448Z,1.75
2022-12-26T21:51:55.752Z,1.08
2022-12-26T21:54:48.360Z,2.65
2022-12-26T21:57:17.972Z,3.08
2022-12-26T21:59:58.911Z,3.72
2022-12-26T22:02:51.243Z,3.70
2022-12-26T22:05:21.345Z,2.53
2022-12-26T22:07:53.849Z,3.33
2022-12-26T22:10:40.949Z,3.92
2022-12-26T22:13:08.708Z,2.90
2022-12-26T22:16:03.436Z,1.58
2022-12-26T22:18:46.267Z,4.55
2022-12-26T22:21:15.375Z,3.05
2022-12-26T22:23:43.789Z,1.63
2022-12-26T22:26:13.684Z,1.80
2022-12-26T22:28:42.376Z,4.25
2022-12-26T22:31:36.627Z,3.30
2022-12-26T22:34:16.375Z,1.73
2022-12-26T22:36:43.959Z,2.97
2022-12-26T22:39:17.181Z,3.17
2022-12-26T22:41:46.009Z,2.65
2022-12-26T22:44:14.471Z,2.78
2022-12-26T22:46:42.812Z,4.20
2022-12-26T22:49:10.392Z,3.58
2022-12-26T22:51:38.743Z,3.10
2022-12-26T22:54:06.049Z,2.22
2022-12-26T22:56:33.959Z,5.50
2022-12-26T22:59:02.197Z,3.33
2022-12-26T23:01:30.286Z,3.85
2022-12-26T23:03:57.978Z,5.80
2022-12-26T23:06:36.323Z,3.05
2022-12-26T23:09:07.092Z,8.98
2022-12-26T23:11:35.834Z,3.13
2022-12-26T23:14:05.533Z,2.88
2022-12-26T23:16:42.066Z,4.95
2022-12-26T23:19:35.027Z,3.95
2022-12-26T23:22:03.641Z,6.07
2022-12-26T23:24:32.431Z,2.75
2022-12-26T23:27:22.492Z,6.28
2022-12-26T23:30:10.438Z,2.40
2022-12-26T23:32:40.201Z,6.65
2022-12-26T23:35:09.664Z,2.00
2022-12-26T23:37:39.036Z,6.88
2022-12-26T23:40:07.964Z,7.00
2022-12-26T23:42:36.882Z,7.35
2022-12-26T23:45:04.572Z,4.45
2022-12-26T23:47:35.575Z,4.22
2022-12-26T23:50:04.003Z,6.85
2022-12-26T23:52:31.849Z,5.43
2022-12-26T23:54:59.173Z,5.40
2022-12-26T23:57:26.747Z,5.85
2022-12-26T23:59:54.400Z,4.72
